sensor_id;sensor_type;location;lat;lon;timestamp;pressure;altitude;pressure_sealevel;temperature;humidity
49827;BME280;35715;51.570;6.036;2024-01-30T00:01:39;102527.00;;;9.71;91.24
49827;BME280;35715;51.570;6.036;2024-01-30T00:04:04;102527.31;;;9.74;90.81
49827;BME280;35715;51.570;6.036;2024-01-30T00:06:29;102527.31;;;9.74;90.46
49827;BME280;35715;51.570;6.036;2024-01-30T00:08:55;102523.69;;;9.72;90.45
49827;BME280;35715;51.570;6.036;2024-01-30T00:11:20;102524.44;;;9.71;90.32
49827;BME280;35715;51.570;6.036;2024-01-30T00:13:46;102524.13;;;9.68;90.57
49827;BME280;35715;51.570;6.036;2024-01-30T00:16:24;102521.56;;;9.68;90.47
49827;BME280;35715;51.570;6.036;2024-01-30T00:18:53;102525.19;;;9.70;90.64
49827;BME280;35715;51.570;6.036;2024-01-30T00:21:19;102525.19;;;9.70;90.32
49827;BME280;35715;51.570;6.036;2024-01-30T00:23:44;102520.66;;;9.68;90.37
49827;BME280;35715;51.570;6.036;2024-01-30T00:26:10;102520.97;;;9.71;90.14
49827;BME280;35715;51.570;6.036;2024-01-30T00:28:37;102515.03;;;9.72;89.94
49827;BME280;35715;51.570;6.036;2024-01-30T00:31:02;102525.50;;;9.65;90.29
49827;BME280;35715;51.570;6.036;2024-01-30T00:33:27;102530.81;;;9.66;89.90
49827;BME280;35715;51.570;6.036;2024-01-30T00:35:56;102530.53;;;9.63;90.21
49827;BME280;35715;51.570;6.036;2024-01-30T00:38:21;102526.25;;;9.64;90.11
49827;BME280;35715;51.570;6.036;2024-01-30T00:40:47;102527.78;;;9.62;90.37
49827;BME280;35715;51.570;6.036;2024-01-30T00:43:13;102520.34;;;9.65;90.19
49827;BME280;35715;51.570;6.036;2024-01-30T00:45:38;102531.13;;;9.69;89.97
49827;BME280;35715;51.570;6.036;2024-01-30T00:48:04;102523.25;;;9.68;90.15
49827;BME280;35715;51.570;6.036;2024-01-30T00:50:29;102521.25;;;9.65;90.61
49827;BME280;35715;51.570;6.036;2024-01-30T00:52:55;102520.34;;;9.65;90.12
49827;BME280;35715;51.570;6.036;2024-01-30T00:55:20;102520.34;;;9.65;90.09
49827;BME280;35715;51.570;6.036;2024-01-30T00:57:45;102517.63;;;9.54;89.76
49827;BME280;35715;51.570;6.036;2024-01-30T01:00:12;102515.19;;;9.38;90.07
49827;BME280;35715;51.570;6.036;2024-01-30T01:02:38;102517.16;;;9.23;90.73
49827;BME280;35715;51.570;6.036;2024-01-30T01:05:06;102511.06;;;9.14;91.64
49827;BME280;35715;51.570;6.036;2024-01-30T01:07:32;102512.28;;;9.09;92.15
49827;BME280;35715;51.570;6.036;2024-01-30T01:09:57;102512.13;;;9.08;91.84
49827;BME280;35715;51.570;6.036;2024-01-30T01:12:22;102515.44;;;9.06;91.84
49827;BME280;35715;51.570;6.036;2024-01-30T01:14:48;102517.88;;;9.05;91.83
49827;BME280;35715;51.570;6.036;2024-01-30T01:17:13;102508.03;;;9.01;92.06
49827;BME280;35715;51.570;6.036;2024-01-30T01:19:39;102514.69;;;8.99;92.31
49827;BME280;35715;51.570;6.036;2024-01-30T01:22:04;102513.03;;;8.99;92.16
49827;BME280;35715;51.570;6.036;2024-01-30T01:24:31;102511.22;;;8.98;92.22
49827;BME280;35715;51.570;6.036;2024-01-30T01:26:58;102513.63;;;8.97;92.57
49827;BME280;35715;51.570;6.036;2024-01-30T01:29:24;102512.38;;;8.93;92.39
49827;BME280;35715;51.570;6.036;2024-01-30T01:31:57;102515.75;;;8.92;92.49
49827;BME280;35715;51.570;6.036;2024-01-30T01:34:24;102511.31;;;8.82;93.16
49827;BME280;35715;51.570;6.036;2024-01-30T01:36:50;102506.94;;;8.81;93.14
49827;BME280;35715;51.570;6.036;2024-01-30T01:39:16;102504.94;;;8.79;93.53
49827;BME280;35715;51.570;6.036;2024-01-30T01:41:41;102502.06;;;8.76;93.73
49827;BME280;35715;51.570;6.036;2024-01-30T01:44:07;102496.78;;;8.74;93.82
49827;BME280;35715;51.570;6.036;2024-01-30T01:46:33;102491.34;;;8.80;93.74
49827;BME280;35715;51.570;6.036;2024-01-30T01:49:00;102492.09;;;8.79;93.79
49827;BME280;35715;51.570;6.036;2024-01-30T01:51:27;102491.78;;;8.76;93.68
49827;BME280;35715;51.570;6.036;2024-01-30T01:54:00;102484.50;;;8.72;93.62
49827;BME280;35715;51.570;6.036;2024-01-30T01:56:27;102487.66;;;8.69;93.56
49827;BME280;35715;51.570;6.036;2024-01-30T01:58:55;102481.31;;;8.74;93.78
49827;BME280;35715;51.570;6.036;2024-01-30T02:01:21;102484.38;;;8.79;93.36
49827;BME280;35715;51.570;6.036;2024-01-30T02:03:48;102484.94;;;8.76;93.38
49827;BME280;35715;51.570;6.036;2024-01-30T02:06:13;102484.66;;;8.73;93.76
49827;BME280;35715;51.570;6.036;2024-01-30T02:08:42;102481.75;;;8.70;93.99
49827;BME280;35715;51.570;6.036;2024-01-30T02:11:08;102474.78;;;8.69;94.20
49827;BME280;35715;51.570;6.036;2024-01-30T02:13:52;102470.25;;;8.66;94.17
49827;BME280;35715;51.570;6.036;2024-01-30T02:16:17;102471.16;;;8.67;94.22
49827;BME280;35715;51.570;6.036;2024-01-30T02:18:43;102478.44;;;8.71;94.57
49827;BME280;35715;51.570;6.036;2024-01-30T02:21:12;102474.06;;;8.79;94.50
49827;BME280;35715;51.570;6.036;2024-01-30T02:23:39;102469.97;;;8.81;94.05
49827;BME280;35715;51.570;6.036;2024-01-30T02:26:04;102470.28;;;8.84;93.83
49827;BME280;35715;51.570;6.036;2024-01-30T02:28:30;102464.38;;;8.85;93.95
49827;BME280;35715;51.570;6.036;2024-01-30T02:30:55;102468.31;;;8.90;93.93
49827;BME280;35715;51.570;6.036;2024-01-30T02:33:30;102468.03;;;8.96;93.90
49827;BME280;35715;51.570;6.036;2024-01-30T02:35:55;102468.66;;;9.02;93.78
49827;BME280;35715;51.570;6.036;2024-01-30T02:38:21;102465.19;;;9.01;93.88
49827;BME280;35715;51.570;6.036;2024-01-30T02:40:46;102464.28;;;9.01;93.63
49827;BME280;35715;51.570;6.036;2024-01-30T02:43:12;102466.38;;;9.05;93.63
49827;BME280;35715;51.570;6.036;2024-01-30T02:45:37;102457.16;;;9.07;93.53
49827;BME280;35715;51.570;6.036;2024-01-30T02:48:03;102467.31;;;9.05;93.21
49827;BME280;35715;51.570;6.036;2024-01-30T02:50:28;102463.66;;;9.03;93.47
49827;BME280;35715;51.570;6.036;2024-01-30T02:52:54;102460.03;;;9.01;93.69
49827;BME280;35715;51.570;6.036;2024-01-30T02:55:19;102455.63;;;9.00;93.41
49827;BME280;35715;51.570;6.036;2024-01-30T02:57:44;102452.00;;;8.98;93.67
49827;BME280;35715;51.570;6.036;2024-01-30T03:00:10;102456.84;;;9.04;93.50
49827;BME280;35715;51.570;6.036;2024-01-30T03:02:39;102449.56;;;9.00;93.76
49827;BME280;35715;51.570;6.036;2024-01-30T03:05:05;102446.84;;;8.98;93.74
49827;BME280;35715;51.570;6.036;2024-01-30T03:07:31;102450.31;;;8.99;93.33
49827;BME280;35715;51.570;6.036;2024-01-30T03:09:57;102452.75;;;8.97;93.55
49827;BME280;35715;51.570;6.036;2024-01-30T03:12:23;102443.38;;;8.98;93.55
49827;BME280;35715;51.570;6.036;2024-01-30T03:14:48;102443.97;;;8.95;93.73
49827;BME280;35715;51.570;6.036;2024-01-30T03:17:14;102439.72;;;8.96;93.45
49827;BME280;35715;51.570;6.036;2024-01-30T03:19:40;102433.81;;;8.97;93.58
49827;BME280;35715;51.570;6.036;2024-01-30T03:22:06;102447.44;;;8.96;94.01
49827;BME280;35715;51.570;6.036;2024-01-30T03:24:31;102446.09;;;8.99;93.89
49827;BME280;35715;51.570;6.036;2024-01-30T03:26:56;102437.31;;;8.97;94.11
49827;BME280;35715;51.570;6.036;2024-01-30T03:29:22;102432.16;;;8.97;94.01
49827;BME280;35715;51.570;6.036;2024-01-30T03:31:50;102433.84;;;9.05;93.50
49827;BME280;35715;51.570;6.036;2024-01-30T03:34:16;102435.94;;;9.10;93.67
49827;BME280;35715;51.570;6.036;2024-01-30T03:36:41;102439.28;;;9.09;93.50
49827;BME280;35715;51.570;6.036;2024-01-30T03:39:06;102438.06;;;9.14;93.22
49827;BME280;35715;51.570;6.036;2024-01-30T03:41:32;102430.34;;;9.14;92.95
49827;BME280;35715;51.570;6.036;2024-01-30T03:43:58;102428.81;;;9.16;92.75
49827;BME280;35715;51.570;6.036;2024-01-30T03:46:23;102432.19;;;9.15;92.90
49827;BME280;35715;51.570;6.036;2024-01-30T03:48:49;102433.50;;;9.11;93.06
49827;BME280;35715;51.570;6.036;2024-01-30T03:51:14;102429.28;;;9.12;93.10
49827;BME280;35715;51.570;6.036;2024-01-30T03:53:44;102428.50;;;9.13;93.03
49827;BME280;35715;51.570;6.036;2024-01-30T03:56:11;102418.50;;;9.16;93.12
49827;BME280;35715;51.570;6.036;2024-01-30T03:58:40;102419.59;;;9.18;92.92
49827;BME280;35715;51.570;6.036;2024-01-30T04:01:07;102420.50;;;9.18;93.05
49827;BME280;35715;51.570;6.036;2024-01-30T04:03:32;102414.31;;;9.16;93.39
49827;BME280;35715;51.570;6.036;2024-01-30T04:05:58;102410.19;;;9.18;93.10
49827;BME280;35715;51.570;6.036;2024-01-30T04:08:23;102408.53;;;9.19;93.29
49827;BME280;35715;51.570;6.036;2024-01-30T04:10:51;102400.19;;;9.21;93.05
49827;BME280;35715;51.570;6.036;2024-01-30T04:13:16;102408.22;;;9.24;92.86
49827;BME280;35715;51.570;6.036;2024-01-30T04:15:42;102408.22;;;9.24;92.85
49827;BME280;35715;51.570;6.036;2024-01-30T04:18:16;102411.72;;;9.25;92.60
49827;BME280;35715;51.570;6.036;2024-01-30T04:20:42;102415.19;;;9.26;92.43
49827;BME280;35715;51.570;6.036;2024-01-30T04:23:07;102416.56;;;9.22;92.91
49827;BME280;35715;51.570;6.036;2024-01-30T04:25:32;102414.31;;;9.25;92.74
49827;BME280;35715;51.570;6.036;2024-01-30T04:27:58;102416.09;;;9.26;92.79
49827;BME280;35715;51.570;6.036;2024-01-30T04:30:23;102424.47;;;9.23;92.95
49827;BME280;35715;51.570;6.036;2024-01-30T04:32:51;102416.38;;;9.20;92.89
49827;BME280;35715;51.570;6.036;2024-01-30T04:35:17;102422.16;;;9.18;93.24
49827;BME280;35715;51.570;6.036;2024-01-30T04:37:42;102416.09;;;9.17;93.03
49827;BME280;35715;51.570;6.036;2024-01-30T04:40:08;102415.94;;;9.16;93.01
49827;BME280;35715;51.570;6.036;2024-01-30T04:42:34;102415.03;;;9.15;93.14
49827;BME280;35715;51.570;6.036;2024-01-30T04:45:00;102420.03;;;9.14;93.13
49827;BME280;35715;51.570;6.036;2024-01-30T04:47:25;102415.66;;;9.13;93.03
49827;BME280;35715;51.570;6.036;2024-01-30T04:49:51;102420.50;;;9.10;93.53
49827;BME280;35715;51.570;6.036;2024-01-30T04:52:17;102415.97;;;9.07;93.89
49827;BME280;35715;51.570;6.036;2024-01-30T04:54:42;102410.81;;;9.07;93.85
49827;BME280;35715;51.570;6.036;2024-01-30T04:57:07;102408.84;;;9.04;93.77
49827;BME280;35715;51.570;6.036;2024-01-30T04:59:35;102404.28;;;9.02;93.93
49827;BME280;35715;51.570;6.036;2024-01-30T05:02:01;102402.78;;;9.04;93.93
49827;BME280;35715;51.570;6.036;2024-01-30T05:04:29;102397.19;;;8.99;94.15
49827;BME280;35715;51.570;6.036;2024-01-30T05:06:54;102395.22;;;8.97;94.61
49827;BME280;35715;51.570;6.036;2024-01-30T05:09:21;102399.13;;;8.93;94.58
49827;BME280;35715;51.570;6.036;2024-01-30T05:11:46;102398.06;;;8.91;95.13
49827;BME280;35715;51.570;6.036;2024-01-30T05:14:11;102396.69;;;8.95;94.68
49827;BME280;35715;51.570;6.036;2024-01-30T05:16:37;102389.75;;;8.94;94.94
49827;BME280;35715;51.570;6.036;2024-01-30T05:19:02;102399.13;;;8.93;94.99
49827;BME280;35715;51.570;6.036;2024-01-30T05:21:28;102393.22;;;8.94;95.34
49827;BME280;35715;51.570;6.036;2024-01-30T05:23:53;102385.81;;;8.97;95.78
49827;BME280;35715;51.570;6.036;2024-01-30T05:26:21;102392.50;;;9.04;95.20
49827;BME280;35715;51.570;6.036;2024-01-30T05:28:48;102395.22;;;9.05;95.10
49827;BME280;35715;51.570;6.036;2024-01-30T05:31:14;102393.09;;;9.10;94.80
49827;BME280;35715;51.570;6.036;2024-01-30T05:33:40;102397.31;;;9.10;94.91
49827;BME280;35715;51.570;6.036;2024-01-30T05:36:05;102396.72;;;9.12;94.93
49827;BME280;35715;51.570;6.036;2024-01-30T05:38:31;102396.13;;;9.15;95.13
49827;BME280;35715;51.570;6.036;2024-01-30T05:40:57;102394.75;;;9.18;94.85
49827;BME280;35715;51.570;6.036;2024-01-30T05:43:25;102388.06;;;9.20;94.68
49827;BME280;35715;51.570;6.036;2024-01-30T05:45:51;102395.97;;;9.22;95.02
49827;BME280;35715;51.570;6.036;2024-01-30T05:48:17;102390.34;;;9.26;94.66
49827;BME280;35715;51.570;6.036;2024-01-30T05:50:43;102392.47;;;9.30;94.57
49827;BME280;35715;51.570;6.036;2024-01-30T05:53:11;102395.50;;;9.26;94.75
49827;BME280;35715;51.570;6.036;2024-01-30T05:55:36;102391.56;;;9.30;94.70
49827;BME280;35715;51.570;6.036;2024-01-30T05:58:02;102401.25;;;9.32;94.75
49827;BME280;35715;51.570;6.036;2024-01-30T06:00:27;102394.91;;;9.37;94.56
49827;BME280;35715;51.570;6.036;2024-01-30T06:02:52;102393.22;;;9.38;94.70
49827;BME280;35715;51.570;6.036;2024-01-30T06:05:18;102390.94;;;9.41;94.57
49827;BME280;35715;51.570;6.036;2024-01-30T06:07:43;102390.63;;;9.47;94.50
49827;BME280;35715;51.570;6.036;2024-01-30T06:10:08;102394.09;;;9.47;94.78
49827;BME280;35715;51.570;6.036;2024-01-30T06:12:34;102397.13;;;9.52;94.47
49827;BME280;35715;51.570;6.036;2024-01-30T06:15:00;102397.13;;;9.52;94.56
49827;BME280;35715;51.570;6.036;2024-01-30T06:17:26;102395.78;;;9.47;94.90
49827;BME280;35715;51.570;6.036;2024-01-30T06:19:51;102394.41;;;9.50;94.93
49827;BME280;35715;51.570;6.036;2024-01-30T06:22:16;102396.66;;;9.56;94.89
49827;BME280;35715;51.570;6.036;2024-01-30T06:24:45;102395.78;;;9.55;94.62
49827;BME280;35715;51.570;6.036;2024-01-30T06:27:13;102393.50;;;9.58;94.94
49827;BME280;35715;51.570;6.036;2024-01-30T06:29:38;102387.84;;;9.63;94.55
49827;BME280;35715;51.570;6.036;2024-01-30T06:32:04;102388.78;;;9.63;94.51
49827;BME280;35715;51.570;6.036;2024-01-30T06:34:29;102392.25;;;9.64;94.74
49827;BME280;35715;51.570;6.036;2024-01-30T06:36:55;102388.47;;;9.60;95.11
49827;BME280;35715;51.570;6.036;2024-01-30T06:39:20;102390.56;;;9.64;94.93
49827;BME280;35715;51.570;6.036;2024-01-30T06:41:47;102387.84;;;9.63;95.10
49827;BME280;35715;51.570;6.036;2024-01-30T06:44:12;102384.53;;;9.64;95.16
49827;BME280;35715;51.570;6.036;2024-01-30T06:46:38;102395.88;;;9.66;95.28
49827;BME280;35715;51.570;6.036;2024-01-30T06:49:04;102390.13;;;9.68;94.87
49827;BME280;35715;51.570;6.036;2024-01-30T06:51:29;102398.13;;;9.71;94.71
49827;BME280;35715;51.570;6.036;2024-01-30T06:53:54;102401.63;;;9.72;94.64
49827;BME280;35715;51.570;6.036;2024-01-30T06:56:20;102402.41;;;9.71;94.68
49827;BME280;35715;51.570;6.036;2024-01-30T06:58:52;102418.91;;;9.73;94.63
49827;BME280;35715;51.570;6.036;2024-01-30T07:01:17;102418.75;;;9.71;94.43
49827;BME280;35715;51.570;6.036;2024-01-30T07:03:43;102412.84;;;9.72;94.70
49827;BME280;35715;51.570;6.036;2024-01-30T07:06:09;102423.16;;;9.72;94.93
49827;BME280;35715;51.570;6.036;2024-01-30T07:08:36;102415.72;;;9.75;94.61
49827;BME280;35715;51.570;6.036;2024-01-30T07:11:02;102422.06;;;9.79;94.67
49827;BME280;35715;51.570;6.036;2024-01-30T07:13:27;102421.03;;;9.77;94.80
49827;BME280;35715;51.570;6.036;2024-01-30T07:15:54;102428.16;;;9.80;94.71
49827;BME280;35715;51.570;6.036;2024-01-30T07:18:19;102441.06;;;9.80;94.68
49827;BME280;35715;51.570;6.036;2024-01-30T07:20:44;102433.03;;;9.76;94.75
49827;BME280;35715;51.570;6.036;2024-01-30T07:23:15;102437.25;;;9.76;94.82
49827;BME280;35715;51.570;6.036;2024-01-30T07:25:42;102438.94;;;9.75;94.96
49827;BME280;35715;51.570;6.036;2024-01-30T07:28:08;102441.34;;;9.74;95.10
49827;BME280;35715;51.570;6.036;2024-01-30T07:30:35;102441.97;;;9.71;95.32
49827;BME280;35715;51.570;6.036;2024-01-30T07:33:00;102448.16;;;9.73;95.38
49827;BME280;35715;51.570;6.036;2024-01-30T07:35:25;102441.50;;;9.75;95.34
49827;BME280;35715;51.570;6.036;2024-01-30T07:37:51;102443.19;;;9.75;95.42
49827;BME280;35715;51.570;6.036;2024-01-30T07:40:17;102456.22;;;9.76;95.35
49827;BME280;35715;51.570;6.036;2024-01-30T07:42:42;102458.00;;;9.77;95.32
49827;BME280;35715;51.570;6.036;2024-01-30T07:45:08;102470.91;;;9.77;95.43
49827;BME280;35715;51.570;6.036;2024-01-30T07:47:34;102457.41;;;9.80;95.38
49827;BME280;35715;51.570;6.036;2024-01-30T07:49:59;102463.63;;;9.82;95.40
49827;BME280;35715;51.570;6.036;2024-01-30T07:52:25;102459.25;;;9.81;95.50
49827;BME280;35715;51.570;6.036;2024-01-30T07:54:53;102464.53;;;9.83;95.49
49827;BME280;35715;51.570;6.036;2024-01-30T07:57:18;102464.53;;;9.83;95.47
49827;BME280;35715;51.570;6.036;2024-01-30T07:59:44;102467.28;;;9.84;95.61
49827;BME280;35715;51.570;6.036;2024-01-30T08:02:13;102470.13;;;9.87;95.53
49827;BME280;35715;51.570;6.036;2024-01-30T08:04:41;102469.34;;;9.88;95.58
49827;BME280;35715;51.570;6.036;2024-01-30T08:07:07;102474.81;;;9.91;95.59
49827;BME280;35715;51.570;6.036;2024-01-30T08:09:32;102470.44;;;9.90;95.71
49827;BME280;35715;51.570;6.036;2024-01-30T08:11:57;102475.09;;;9.94;95.78
49827;BME280;35715;51.570;6.036;2024-01-30T08:14:23;102475.41;;;9.98;95.75
49827;BME280;35715;51.570;6.036;2024-01-30T08:16:48;102474.78;;;10.00;95.57
49827;BME280;35715;51.570;6.036;2024-01-30T08:19:16;102482.81;;;10.03;95.55
49827;BME280;35715;51.570;6.036;2024-01-30T08:21:45;102479.78;;;10.07;95.73
49827;BME280;35715;51.570;6.036;2024-01-30T08:24:10;102485.09;;;10.09;95.50
49827;BME280;35715;51.570;6.036;2024-01-30T08:26:36;102485.09;;;10.09;95.84
49827;BME280;35715;51.570;6.036;2024-01-30T08:29:02;102487.66;;;10.09;95.71
49827;BME280;35715;51.570;6.036;2024-01-30T08:31:27;102489.94;;;10.15;95.51
49827;BME280;35715;51.570;6.036;2024-01-30T08:33:56;102485.38;;;10.21;95.55
49827;BME280;35715;51.570;6.036;2024-01-30T08:36:21;102483.38;;;10.27;95.84
49827;BME280;35715;51.570;6.036;2024-01-30T08:38:47;102488.97;;;10.32;95.52
49827;BME280;35715;51.570;6.036;2024-01-30T08:41:12;102490.78;;;10.33;95.65
49827;BME280;35715;51.570;6.036;2024-01-30T08:43:40;102495.50;;;10.37;95.71
49827;BME280;35715;51.570;6.036;2024-01-30T08:46:06;102496.56;;;10.39;95.73
49827;BME280;35715;51.570;6.036;2024-01-30T08:48:31;102491.69;;;10.42;95.86
49827;BME280;35715;51.570;6.036;2024-01-30T08:50:57;102485.13;;;10.45;96.01
49827;BME280;35715;51.570;6.036;2024-01-30T08:53:22;102495.00;;;10.50;95.96
49827;BME280;35715;51.570;6.036;2024-01-30T08:55:47;102499.38;;;10.51;96.04
49827;BME280;35715;51.570;6.036;2024-01-30T08:58:13;102493.75;;;10.55;95.89
49827;BME280;35715;51.570;6.036;2024-01-30T09:00:38;102494.19;;;10.59;96.09
49827;BME280;35715;51.570;6.036;2024-01-30T09:03:05;102486.25;;;10.67;95.67
49827;BME280;35715;51.570;6.036;2024-01-30T09:05:30;102487.41;;;10.79;95.48
49827;BME280;35715;51.570;6.036;2024-01-30T09:07:56;102487.34;;;10.88;95.28
49827;BME280;35715;51.570;6.036;2024-01-30T09:10:21;102488.19;;;10.97;95.15
49827;BME280;35715;51.570;6.036;2024-01-30T09:12:47;102480.13;;;11.03;94.86
49827;BME280;35715;51.570;6.036;2024-01-30T09:15:13;102484.34;;;11.02;94.96
49827;BME280;35715;51.570;6.036;2024-01-30T09:17:38;102479.84;;;10.99;94.74
49827;BME280;35715;51.570;6.036;2024-01-30T09:20:07;102490.31;;;11.01;94.86
49827;BME280;35715;51.570;6.036;2024-01-30T09:22:34;102473.53;;;10.87;95.44
49827;BME280;35715;51.570;6.036;2024-01-30T09:24:59;102487.44;;;10.98;95.05
49827;BME280;35715;51.570;6.036;2024-01-30T09:27:24;102485.41;;;11.04;94.93
49827;BME280;35715;51.570;6.036;2024-01-30T09:29:50;102483.41;;;11.10;94.88
49827;BME280;35715;51.570;6.036;2024-01-30T09:32:15;102483.06;;;11.16;94.70
49827;BME280;35715;51.570;6.036;2024-01-30T09:34:41;102491.09;;;11.19;94.44
49827;BME280;35715;51.570;6.036;2024-01-30T09:37:07;102497.44;;;11.23;94.73
49827;BME280;35715;51.570;6.036;2024-01-30T09:39:32;102501.06;;;11.25;94.76
49827;BME280;35715;51.570;6.036;2024-01-30T09:42:35;102495.28;;;11.27;94.27
49827;BME280;35715;51.570;6.036;2024-01-30T09:45:05;102500.84;;;11.32;94.69
49827;BME280;35715;51.570;6.036;2024-01-30T09:47:35;102508.28;;;11.38;94.53
49827;BME280;35715;51.570;6.036;2024-01-30T09:50:02;102508.69;;;11.42;94.34
49827;BME280;35715;51.570;6.036;2024-01-30T09:52:28;102511.69;;;11.47;94.39
49827;BME280;35715;51.570;6.036;2024-01-30T09:54:54;102505.38;;;11.53;93.82
49827;BME280;35715;51.570;6.036;2024-01-30T09:57:19;102514.63;;;11.60;93.96
49827;BME280;35715;51.570;6.036;2024-01-30T09:59:46;102511.81;;;11.67;93.49
49827;BME280;35715;51.570;6.036;2024-01-30T10:02:11;102505.66;;;11.76;93.33
49827;BME280;35715;51.570;6.036;2024-01-30T10:04:37;102513.53;;;11.77;93.23
49827;BME280;35715;51.570;6.036;2024-01-30T10:07:02;102514.72;;;11.81;93.20
49827;BME280;35715;51.570;6.036;2024-01-30T10:09:28;102515.91;;;11.84;93.26
49827;BME280;35715;51.570;6.036;2024-01-30T10:11:54;102517.34;;;11.91;92.81
49827;BME280;35715;51.570;6.036;2024-01-30T10:14:20;102521.19;;;11.95;92.83
49827;BME280;35715;51.570;6.036;2024-01-30T10:16:46;102521.78;;;11.92;92.54
49827;BME280;35715;51.570;6.036;2024-01-30T10:19:11;102520.97;;;11.83;92.84
49827;BME280;35715;51.570;6.036;2024-01-30T10:21:37;102511.66;;;11.85;92.71
49827;BME280;35715;51.570;6.036;2024-01-30T10:24:02;102513.47;;;11.86;92.71
49827;BME280;35715;51.570;6.036;2024-01-30T10:26:28;102518.78;;;11.87;92.76
49827;BME280;35715;51.570;6.036;2024-01-30T10:28:54;102518.16;;;11.90;92.55
49827;BME280;35715;51.570;6.036;2024-01-30T10:31:20;102510.13;;;11.87;92.67
49827;BME280;35715;51.570;6.036;2024-01-30T10:33:45;102523.06;;;11.87;92.81
49827;BME280;35715;51.570;6.036;2024-01-30T10:36:13;102526.06;;;11.92;92.94
49827;BME280;35715;51.570;6.036;2024-01-30T10:38:42;102523.47;;;11.92;92.70
49827;BME280;35715;51.570;6.036;2024-01-30T10:41:08;102524.66;;;11.95;92.75
49827;BME280;35715;51.570;6.036;2024-01-30T10:43:41;102521.78;;;11.92;92.69
49827;BME280;35715;51.570;6.036;2024-01-30T10:46:19;102524.53;;;11.94;92.57
49827;BME280;35715;51.570;6.036;2024-01-30T10:48:50;102523.53;;;12.02;92.80
49827;BME280;35715;51.570;6.036;2024-01-30T10:51:22;102524.72;;;12.05;92.92
49827;BME280;35715;51.570;6.036;2024-01-30T10:53:52;102524.50;;;12.13;92.80
49827;BME280;35715;51.570;6.036;2024-01-30T10:56:20;102523.84;;;12.15;92.77
49827;BME280;35715;51.570;6.036;2024-01-30T10:58:47;102524.63;;;12.14;92.95
49827;BME280;35715;51.570;6.036;2024-01-30T11:01:14;102530.56;;;12.13;93.03
49827;BME280;35715;51.570;6.036;2024-01-30T11:03:40;102527.97;;;12.13;93.17
49827;BME280;35715;51.570;6.036;2024-01-30T11:06:10;102522.03;;;12.14;93.10
49827;BME280;35715;51.570;6.036;2024-01-30T11:08:37;102531.75;;;12.17;93.20
49827;BME280;35715;51.570;6.036;2024-01-30T11:11:08;102524.91;;;12.17;93.35
49827;BME280;35715;51.570;6.036;2024-01-30T11:13:34;102524.38;;;12.21;93.29
49827;BME280;35715;51.570;6.036;2024-01-30T11:16:04;102520.25;;;12.23;93.23
49827;BME280;35715;51.570;6.036;2024-01-30T11:18:35;102525.31;;;12.22;93.24
49827;BME280;35715;51.570;6.036;2024-01-30T11:21:01;102524.00;;;12.27;93.74
49827;BME280;35715;51.570;6.036;2024-01-30T11:23:30;102522.84;;;12.34;93.59
49827;BME280;35715;51.570;6.036;2024-01-30T11:25:56;102518.13;;;12.38;93.48
49827;BME280;35715;51.570;6.036;2024-01-30T11:28:22;102524.06;;;12.37;93.22
49827;BME280;35715;51.570;6.036;2024-01-30T11:30:48;102522.38;;;12.38;93.36
49827;BME280;35715;51.570;6.036;2024-01-30T11:33:27;102519.66;;;12.36;92.99
49827;BME280;35715;51.570;6.036;2024-01-30T11:35:53;102524.41;;;12.32;93.35
49827;BME280;35715;51.570;6.036;2024-01-30T11:38:19;102513.56;;;12.36;93.77
49827;BME280;35715;51.570;6.036;2024-01-30T11:40:44;102524.19;;;12.39;93.76
49827;BME280;35715;51.570;6.036;2024-01-30T11:43:10;102522.91;;;12.44;93.62
49827;BME280;35715;51.570;6.036;2024-01-30T11:45:36;102513.47;;;12.45;93.85
49827;BME280;35715;51.570;6.036;2024-01-30T11:48:03;102514.63;;;12.48;93.81
49827;BME280;35715;51.570;6.036;2024-01-30T11:50:38;102509.59;;;12.50;93.83
49827;BME280;35715;51.570;6.036;2024-01-30T11:53:05;102505.06;;;12.57;93.71
49827;BME280;35715;51.570;6.036;2024-01-30T11:55:30;102502.75;;;12.60;93.96
49827;BME280;35715;51.570;6.036;2024-01-30T11:57:59;102508.69;;;12.59;93.60
49827;BME280;35715;51.570;6.036;2024-01-30T12:00:25;102505.72;;;12.65;93.72
49827;BME280;35715;51.570;6.036;2024-01-30T12:02:52;102504.19;;;12.67;93.70
49827;BME280;35715;51.570;6.036;2024-01-30T12:05:21;102508.97;;;12.73;93.49
49827;BME280;35715;51.570;6.036;2024-01-30T12:07:46;102502.75;;;12.71;92.96
49827;BME280;35715;51.570;6.036;2024-01-30T12:10:13;102512.06;;;12.79;92.27
49827;BME280;35715;51.570;6.036;2024-01-30T12:12:48;102499.94;;;12.78;91.69
49827;BME280;35715;51.570;6.036;2024-01-30T12:15:14;102499.13;;;12.58;91.10
49827;BME280;35715;51.570;6.036;2024-01-30T12:17:46;102508.19;;;12.64;91.01
49827;BME280;35715;51.570;6.036;2024-01-30T12:20:13;102508.31;;;12.65;90.07
49827;BME280;35715;51.570;6.036;2024-01-30T12:22:43;102521.28;;;12.75;89.74
49827;BME280;35715;51.570;6.036;2024-01-30T12:25:13;102516.63;;;12.82;88.86
49827;BME280;35715;51.570;6.036;2024-01-30T12:27:42;102518.34;;;12.91;88.64
49827;BME280;35715;51.570;6.036;2024-01-30T12:30:14;102519.25;;;13.02;88.24
49827;BME280;35715;51.570;6.036;2024-01-30T12:32:41;102506.81;;;13.08;88.05
49827;BME280;35715;51.570;6.036;2024-01-30T12:35:11;102512.38;;;13.13;87.65
49827;BME280;35715;51.570;6.036;2024-01-30T12:37:37;102513.66;;;13.08;86.40
49827;BME280;35715;51.570;6.036;2024-01-30T12:40:03;102512.13;;;13.10;86.26
49827;BME280;35715;51.570;6.036;2024-01-30T12:42:31;102521.56;;;13.09;85.80
49827;BME280;35715;51.570;6.036;2024-01-30T12:44:57;102522.59;;;13.11;85.27
49827;BME280;35715;51.570;6.036;2024-01-30T12:47:23;102523.38;;;13.10;84.91
49827;BME280;35715;51.570;6.036;2024-01-30T12:49:49;102531.16;;;13.10;84.41
49827;BME280;35715;51.570;6.036;2024-01-30T12:52:17;102535.19;;;13.17;84.40
49827;BME280;35715;51.570;6.036;2024-01-30T12:54:42;102534.25;;;13.27;83.96